sensor_id;sensor_type;location;lat;lon;timestamp;P1;durP1;ratioP1;P2;durP2;ratioP2
20038;SDS011;21737;42.868;25.320;2023-04-24T00:01:15;10.57;;;5.27;;
20038;SDS011;21737;42.868;25.320;2023-04-24T00:04:18;7.60;;;5.17;;
20038;SDS011;21737;42.868;25.320;2023-04-24T00:07:20;7.93;;;5.47;;
20038;SDS011;21737;42.868;25.320;2023-04-24T00:10:22;12.97;;;5.53;;
20038;SDS011;21737;42.868;25.320;2023-04-24T00:13:24;25.17;;;13.00;;
20038;SDS011;21737;42.868;25.320;2023-04-24T00:16:25;12.13;;;6.80;;
20038;SDS011;21737;42.868;25.320;2023-04-24T00:19:28;10.73;;;5.53;;
20038;SDS011;21737;42.868;25.320;2023-04-24T00:22:30;8.67;;;5.80;;
20038;SDS011;21737;42.868;25.320;2023-04-24T00:25:32;9.07;;;4.53;;
20038;SDS011;21737;42.868;25.320;2023-04-24T00:28:33;9.63;;;5.30;;
20038;SDS011;21737;42.868;25.320;2023-04-24T00:31:37;8.97;;;5.13;;
20038;SDS011;21737;42.868;25.320;2023-04-24T00:34:40;12.27;;;6.07;;
20038;SDS011;21737;42.868;25.320;2023-04-24T00:37:42;13.47;;;5.40;;
20038;SDS011;21737;42.868;25.320;2023-04-24T00:40:43;9.57;;;5.27;;
20038;SDS011;21737;42.868;25.320;2023-04-24T00:43:45;15.40;;;6.13;;
20038;SDS011;21737;42.868;25.320;2023-04-24T00:46:47;12.93;;;6.97;;
20038;SDS011;21737;42.868;25.320;2023-04-24T00:49:53;11.97;;;5.63;;
20038;SDS011;21737;42.868;25.320;2023-04-24T00:52:54;9.23;;;5.77;;
20038;SDS011;21737;42.868;25.320;2023-04-24T00:55:56;11.30;;;6.20;;
20038;SDS011;21737;42.868;25.320;2023-04-24T00:58:59;12.13;;;5.80;;
20038;SDS011;21737;42.868;25.320;2023-04-24T01:02:00;15.27;;;6.43;;
20038;SDS011;21737;42.868;25.320;2023-04-24T01:05:02;13.40;;;6.20;;
20038;SDS011;21737;42.868;25.320;2023-04-24T01:08:05;12.60;;;6.90;;
20038;SDS011;21737;42.868;25.320;2023-04-24T01:11:07;12.50;;;6.60;;
20038;SDS011;21737;42.868;25.320;2023-04-24T01:14:09;9.73;;;5.67;;
20038;SDS011;21737;42.868;25.320;2023-04-24T01:17:11;12.20;;;5.67;;
20038;SDS011;21737;42.868;25.320;2023-04-24T01:20:13;11.00;;;6.40;;
20038;SDS011;21737;42.868;25.320;2023-04-24T01:23:15;11.27;;;5.40;;
20038;SDS011;21737;42.868;25.320;2023-04-24T01:26:18;12.47;;;6.60;;
20038;SDS011;21737;42.868;25.320;2023-04-24T01:29:21;12.27;;;5.93;;
20038;SDS011;21737;42.868;25.320;2023-04-24T01:32:23;14.77;;;5.63;;
20038;SDS011;21737;42.868;25.320;2023-04-24T01:35:25;11.13;;;5.87;;
20038;SDS011;21737;42.868;25.320;2023-04-24T01:38:27;12.27;;;6.50;;
20038;SDS011;21737;42.868;25.320;2023-04-24T01:41:29;15.10;;;6.90;;
20038;SDS011;21737;42.868;25.320;2023-04-24T01:44:31;16.03;;;6.60;;
20038;SDS011;21737;42.868;25.320;2023-04-24T01:47:33;12.23;;;6.10;;
20038;SDS011;21737;42.868;25.320;2023-04-24T01:50:35;14.07;;;7.00;;
20038;SDS011;21737;42.868;25.320;2023-04-24T01:53:37;13.47;;;6.37;;
20038;SDS011;21737;42.868;25.320;2023-04-24T01:56:40;11.87;;;6.57;;
20038;SDS011;21737;42.868;25.320;2023-04-24T01:59:43;11.33;;;6.63;;
20038;SDS011;21737;42.868;25.320;2023-04-24T02:02:44;9.73;;;5.53;;
20038;SDS011;21737;42.868;25.320;2023-04-24T02:05:48;12.60;;;6.67;;
20038;SDS011;21737;42.868;25.320;2023-04-24T02:08:50;11.87;;;6.00;;
20038;SDS011;21737;42.868;25.320;2023-04-24T02:11:52;14.70;;;6.57;;
20038;SDS011;21737;42.868;25.320;2023-04-24T02:14:53;12.57;;;6.60;;
20038;SDS011;21737;42.868;25.320;2023-04-24T02:17:55;12.73;;;7.30;;
20038;SDS011;21737;42.868;25.320;2023-04-24T02:20:57;11.73;;;5.73;;
20038;SDS011;21737;42.868;25.320;2023-04-24T02:23:59;11.53;;;6.50;;
20038;SDS011;21737;42.868;25.320;2023-04-24T02:27:00;13.47;;;7.30;;
20038;SDS011;21737;42.868;25.320;2023-04-24T02:30:03;21.10;;;9.20;;
20038;SDS011;21737;42.868;25.320;2023-04-24T02:33:05;21.63;;;8.80;;
20038;SDS011;21737;42.868;25.320;2023-04-24T02:36:07;22.87;;;8.27;;
20038;SDS011;21737;42.868;25.320;2023-04-24T02:39:09;15.13;;;6.70;;
20038;SDS011;21737;42.868;25.320;2023-04-24T02:42:12;20.70;;;6.63;;
20038;SDS011;21737;42.868;25.320;2023-04-24T02:45:14;27.60;;;9.63;;
20038;SDS011;21737;42.868;25.320;2023-04-24T02:48:16;19.90;;;6.97;;
20038;SDS011;21737;42.868;25.320;2023-04-24T02:51:18;14.07;;;6.80;;
20038;SDS011;21737;42.868;25.320;2023-04-24T02:54:20;11.37;;;7.27;;
20038;SDS011;21737;42.868;25.320;2023-04-24T02:57:22;12.00;;;7.27;;
20038;SDS011;21737;42.868;25.320;2023-04-24T03:00:23;11.77;;;7.00;;
20038;SDS011;21737;42.868;25.320;2023-04-24T03:03:25;18.00;;;7.83;;
20038;SDS011;21737;42.868;25.320;2023-04-24T03:06:27;14.40;;;7.60;;
20038;SDS011;21737;42.868;25.320;2023-04-24T03:09:29;14.63;;;7.57;;
20038;SDS011;21737;42.868;25.320;2023-04-24T03:12:31;17.50;;;7.63;;
20038;SDS011;21737;42.868;25.320;2023-04-24T03:15:33;15.03;;;8.17;;
20038;SDS011;21737;42.868;25.320;2023-04-24T03:18:34;21.57;;;10.33;;
20038;SDS011;21737;42.868;25.320;2023-04-24T03:21:37;17.40;;;8.47;;
20038;SDS011;21737;42.868;25.320;2023-04-24T03:24:42;21.30;;;11.97;;
20038;SDS011;21737;42.868;25.320;2023-04-24T03:27:43;17.00;;;10.43;;
20038;SDS011;21737;42.868;25.320;2023-04-24T03:30:54;19.13;;;9.50;;
20038;SDS011;21737;42.868;25.320;2023-04-24T03:33:57;13.13;;;8.10;;
20038;SDS011;21737;42.868;25.320;2023-04-24T03:37:00;9.60;;;5.60;;
20038;SDS011;21737;42.868;25.320;2023-04-24T03:40:03;9.87;;;5.70;;
20038;SDS011;21737;42.868;25.320;2023-04-24T03:43:05;12.77;;;6.67;;
20038;SDS011;21737;42.868;25.320;2023-04-24T03:46:07;9.60;;;6.40;;
20038;SDS011;21737;42.868;25.320;2023-04-24T03:49:15;8.37;;;6.30;;
20038;SDS011;21737;42.868;25.320;2023-04-24T03:52:20;10.43;;;6.17;;
20038;SDS011;21737;42.868;25.320;2023-04-24T03:55:22;16.27;;;6.73;;
20038;SDS011;21737;42.868;25.320;2023-04-24T03:58:24;13.00;;;9.00;;
20038;SDS011;21737;42.868;25.320;2023-04-24T04:01:28;17.13;;;8.77;;
20038;SDS011;21737;42.868;25.320;2023-04-24T04:04:38;12.37;;;6.07;;
20038;SDS011;21737;42.868;25.320;2023-04-24T04:07:41;10.50;;;5.93;;
20038;SDS011;21737;42.868;25.320;2023-04-24T04:10:42;11.30;;;5.30;;
20038;SDS011;21737;42.868;25.320;2023-04-24T04:13:44;8.17;;;5.27;;
20038;SDS011;21737;42.868;25.320;2023-04-24T04:16:47;8.73;;;5.67;;
20038;SDS011;21737;42.868;25.320;2023-04-24T04:19:49;9.93;;;6.47;;
20038;SDS011;21737;42.868;25.320;2023-04-24T04:22:50;10.70;;;5.97;;
20038;SDS011;21737;42.868;25.320;2023-04-24T04:25:59;17.43;;;6.60;;
20038;SDS011;21737;42.868;25.320;2023-04-24T04:29:12;13.43;;;6.50;;
20038;SDS011;21737;42.868;25.320;2023-04-24T04:32:17;14.97;;;7.00;;
20038;SDS011;21737;42.868;25.320;2023-04-24T04:35:19;16.90;;;7.23;;
20038;SDS011;21737;42.868;25.320;2023-04-24T04:38:23;18.00;;;8.37;;
20038;SDS011;21737;42.868;25.320;2023-04-24T04:41:36;15.67;;;9.40;;
20038;SDS011;21737;42.868;25.320;2023-04-24T04:44:39;12.70;;;8.07;;
20038;SDS011;21737;42.868;25.320;2023-04-24T04:47:44;14.30;;;8.60;;
20038;SDS011;21737;42.868;25.320;2023-04-24T04:50:46;21.13;;;10.50;;
20038;SDS011;21737;42.868;25.320;2023-04-24T04:53:48;36.63;;;17.93;;
20038;SDS011;21737;42.868;25.320;2023-04-24T04:56:50;24.67;;;10.23;;
20038;SDS011;21737;42.868;25.320;2023-04-24T04:59:52;15.87;;;9.20;;
20038;SDS011;21737;42.868;25.320;2023-04-24T05:03:09;18.30;;;8.50;;
20038;SDS011;21737;42.868;25.320;2023-04-24T05:06:26;13.50;;;8.20;;
20038;SDS011;21737;42.868;25.320;2023-04-24T05:09:29;30.97;;;16.77;;
20038;SDS011;21737;42.868;25.320;2023-04-24T05:12:36;18.90;;;11.23;;
20038;SDS011;21737;42.868;25.320;2023-04-24T05:15:38;33.90;;;19.13;;
20038;SDS011;21737;42.868;25.320;2023-04-24T05:18:40;21.97;;;10.90;;
20038;SDS011;21737;42.868;25.320;2023-04-24T05:21:45;29.10;;;15.47;;
20038;SDS011;21737;42.868;25.320;2023-04-24T05:24:47;22.37;;;10.23;;
20038;SDS011;21737;42.868;25.320;2023-04-24T05:28:15;38.10;;;19.60;;
20038;SDS011;21737;42.868;25.320;2023-04-24T05:31:22;31.17;;;20.40;;
20038;SDS011;21737;42.868;25.320;2023-04-24T05:34:24;18.83;;;9.70;;
20038;SDS011;21737;42.868;25.320;2023-04-24T05:37:29;29.60;;;15.53;;
20038;SDS011;21737;42.868;25.320;2023-04-24T05:40:31;33.00;;;16.87;;
20038;SDS011;21737;42.868;25.320;2023-04-24T05:43:33;24.37;;;11.83;;
20038;SDS011;21737;42.868;25.320;2023-04-24T05:46:35;94.97;;;39.33;;
20038;SDS011;21737;42.868;25.320;2023-04-24T05:49:36;232.40;;;86.13;;
20038;SDS011;21737;42.868;25.320;2023-04-24T05:52:39;125.07;;;45.20;;
20038;SDS011;21737;42.868;25.320;2023-04-24T05:55:54;760.47;;;341.33;;
20038;SDS011;21737;42.868;25.320;2023-04-24T05:58:57;438.10;;;171.00;;
20038;SDS011;21737;42.868;25.320;2023-04-24T06:01:58;157.67;;;93.60;;
20038;SDS011;21737;42.868;25.320;2023-04-24T06:05:00;41.57;;;24.93;;
20038;SDS011;21737;42.868;25.320;2023-04-24T06:08:03;27.87;;;12.57;;
20038;SDS011;21737;42.868;25.320;2023-04-24T06:11:09;20.17;;;14.97;;
20038;SDS011;21737;42.868;25.320;2023-04-24T06:14:12;18.67;;;7.93;;
20038;SDS011;21737;42.868;25.320;2023-04-24T06:17:34;14.20;;;7.63;;
20038;SDS011;21737;42.868;25.320;2023-04-24T06:20:36;19.17;;;7.60;;
20038;SDS011;21737;42.868;25.320;2023-04-24T06:23:37;9.70;;;6.50;;
20038;SDS011;21737;42.868;25.320;2023-04-24T06:26:39;9.80;;;5.50;;
20038;SDS011;21737;42.868;25.320;2023-04-24T06:29:41;8.43;;;5.07;;
20038;SDS011;21737;42.868;25.320;2023-04-24T06:32:43;10.37;;;6.40;;
20038;SDS011;21737;42.868;25.320;2023-04-24T06:35:45;7.57;;;4.40;;
20038;SDS011;21737;42.868;25.320;2023-04-24T06:38:47;9.10;;;4.73;;
20038;SDS011;21737;42.868;25.320;2023-04-24T06:41:48;9.63;;;5.50;;
20038;SDS011;21737;42.868;25.320;2023-04-24T06:44:53;12.10;;;7.37;;
20038;SDS011;21737;42.868;25.320;2023-04-24T06:47:55;11.97;;;9.30;;
20038;SDS011;21737;42.868;25.320;2023-04-24T06:50:57;8.77;;;6.57;;
20038;SDS011;21737;42.868;25.320;2023-04-24T06:53:59;5.67;;;4.37;;
20038;SDS011;21737;42.868;25.320;2023-04-24T06:57:01;5.20;;;4.17;;
20038;SDS011;21737;42.868;25.320;2023-04-24T07:00:04;7.57;;;4.80;;
20038;SDS011;21737;42.868;25.320;2023-04-24T07:03:06;6.73;;;4.60;;
20038;SDS011;21737;42.868;25.320;2023-04-24T07:06:09;9.70;;;4.63;;
20038;SDS011;21737;42.868;25.320;2023-04-24T07:09:12;7.93;;;4.83;;
20038;SDS011;21737;42.868;25.320;2023-04-24T07:12:15;6.30;;;4.87;;
20038;SDS011;21737;42.868;25.320;2023-04-24T07:15:18;7.10;;;5.10;;
20038;SDS011;21737;42.868;25.320;2023-04-24T07:18:20;8.13;;;5.20;;
20038;SDS011;21737;42.868;25.320;2023-04-24T07:21:22;8.30;;;4.23;;
20038;SDS011;21737;42.868;25.320;2023-04-24T07:24:24;9.40;;;4.87;;
20038;SDS011;21737;42.868;25.320;2023-04-24T07:27:27;6.23;;;5.17;;
20038;SDS011;21737;42.868;25.320;2023-04-24T07:30:28;6.80;;;4.40;;
20038;SDS011;21737;42.868;25.320;2023-04-24T07:33:30;7.20;;;6.30;;
20038;SDS011;21737;42.868;25.320;2023-04-24T07:36:32;9.00;;;4.90;;
20038;SDS011;21737;42.868;25.320;2023-04-24T07:39:34;12.73;;;7.80;;
20038;SDS011;21737;42.868;25.320;2023-04-24T07:42:35;9.07;;;5.30;;
20038;SDS011;21737;42.868;25.320;2023-04-24T07:45:37;8.17;;;4.80;;
20038;SDS011;21737;42.868;25.320;2023-04-24T07:48:41;6.47;;;5.27;;
20038;SDS011;21737;42.868;25.320;2023-04-24T07:51:42;7.03;;;4.90;;
20038;SDS011;21737;42.868;25.320;2023-04-24T07:54:44;4.80;;;4.07;;
20038;SDS011;21737;42.868;25.320;2023-04-24T07:57:46;11.47;;;5.27;;
20038;SDS011;21737;42.868;25.320;2023-04-24T08:00:48;8.07;;;5.23;;
20038;SDS011;21737;42.868;25.320;2023-04-24T08:03:50;12.50;;;6.97;;
20038;SDS011;21737;42.868;25.320;2023-04-24T08:06:52;6.53;;;5.00;;
20038;SDS011;21737;42.868;25.320;2023-04-24T08:09:54;7.73;;;5.10;;
20038;SDS011;21737;42.868;25.320;2023-04-24T08:12:55;6.97;;;5.43;;
20038;SDS011;21737;42.868;25.320;2023-04-24T08:15:57;7.53;;;5.87;;
20038;SDS011;21737;42.868;25.320;2023-04-24T08:18:59;6.33;;;4.50;;
20038;SDS011;21737;42.868;25.320;2023-04-24T08:22:01;8.07;;;5.63;;
20038;SDS011;21737;42.868;25.320;2023-04-24T08:25:04;10.77;;;6.93;;
20038;SDS011;21737;42.868;25.320;2023-04-24T08:28:06;11.97;;;5.60;;
20038;SDS011;21737;42.868;25.320;2023-04-24T08:31:08;7.07;;;5.50;;
20038;SDS011;21737;42.868;25.320;2023-04-24T08:34:09;8.57;;;5.80;;
20038;SDS011;21737;42.868;25.320;2023-04-24T08:37:11;15.93;;;6.17;;
20038;SDS011;21737;42.868;25.320;2023-04-24T08:40:14;12.73;;;6.50;;
20038;SDS011;21737;42.868;25.320;2023-04-24T08:43:16;16.17;;;7.80;;
20038;SDS011;21737;42.868;25.320;2023-04-24T08:46:18;14.90;;;6.90;;
20038;SDS011;21737;42.868;25.320;2023-04-24T08:49:20;10.37;;;7.60;;
20038;SDS011;21737;42.868;25.320;2023-04-24T08:52:23;8.80;;;6.60;;
20038;SDS011;21737;42.868;25.320;2023-04-24T08:55:24;12.17;;;6.27;;
20038;SDS011;21737;42.868;25.320;2023-04-24T08:58:26;9.23;;;5.47;;
20038;SDS011;21737;42.868;25.320;2023-04-24T09:01:28;9.23;;;6.40;;
20038;SDS011;21737;42.868;25.320;2023-04-24T09:04:30;7.77;;;5.87;;
20038;SDS011;21737;42.868;25.320;2023-04-24T09:07:34;5.40;;;4.50;;
20038;SDS011;21737;42.868;25.320;2023-04-24T09:10:37;7.13;;;4.83;;
20038;SDS011;21737;42.868;25.320;2023-04-24T09:13:40;6.83;;;4.53;;
20038;SDS011;21737;42.868;25.320;2023-04-24T09:16:42;5.20;;;4.70;;
20038;SDS011;21737;42.868;25.320;2023-04-24T09:19:44;10.50;;;5.23;;
20038;SDS011;21737;42.868;25.320;2023-04-24T09:22:46;5.40;;;4.90;;
20038;SDS011;21737;42.868;25.320;2023-04-24T09:25:48;8.77;;;4.83;;
20038;SDS011;21737;42.868;25.320;2023-04-24T09:28:55;15.10;;;7.60;;
20038;SDS011;21737;42.868;25.320;2023-04-24T09:31:57;5.40;;;4.18;;
20038;SDS011;21737;42.868;25.320;2023-04-24T09:38:07;6.65;;;4.40;;
20038;SDS011;21737;42.868;25.320;2023-04-24T09:41:08;6.43;;;4.97;;
20038;SDS011;21737;42.868;25.320;2023-04-24T09:44:15;6.93;;;5.57;;
20038;SDS011;21737;42.868;25.320;2023-04-24T09:47:17;5.90;;;4.73;;
20038;SDS011;21737;42.868;25.320;2023-04-24T09:50:20;5.43;;;4.07;;
20038;SDS011;21737;42.868;25.320;2023-04-24T09:53:24;6.33;;;4.17;;
20038;SDS011;21737;42.868;25.320;2023-04-24T09:56:26;7.33;;;5.07;;
20038;SDS011;21737;42.868;25.320;2023-04-24T09:59:28;6.87;;;4.03;;
20038;SDS011;21737;42.868;25.320;2023-04-24T10:02:30;6.27;;;4.53;;
20038;SDS011;21737;42.868;25.320;2023-04-24T10:05:34;5.63;;;4.93;;
20038;SDS011;21737;42.868;25.320;2023-04-24T10:08:38;7.10;;;4.77;;
20038;SDS011;21737;42.868;25.320;2023-04-24T10:11:43;8.07;;;4.73;;
20038;SDS011;21737;42.868;25.320;2023-04-24T10:14:46;6.53;;;4.57;;
20038;SDS011;21737;42.868;25.320;2023-04-24T10:17:49;10.50;;;4.60;;
20038;SDS011;21737;42.868;25.320;2023-04-24T10:20:54;11.50;;;5.23;;
20038;SDS011;21737;42.868;25.320;2023-04-24T10:23:56;7.37;;;5.13;;
20038;SDS011;21737;42.868;25.320;2023-04-24T10:26:59;6.27;;;5.03;;
20038;SDS011;21737;42.868;25.320;2023-04-24T10:30:02;9.70;;;5.17;;
20038;SDS011;21737;42.868;25.320;2023-04-24T10:33:05;9.57;;;5.33;;
20038;SDS011;21737;42.868;25.320;2023-04-24T10:36:11;7.90;;;5.00;;
20038;SDS011;21737;42.868;25.320;2023-04-24T10:39:13;6.90;;;5.37;;
20038;SDS011;21737;42.868;25.320;2023-04-24T10:42:19;11.97;;;5.33;;
20038;SDS011;21737;42.868;25.320;2023-04-24T10:45:21;9.67;;;5.60;;
20038;SDS011;21737;42.868;25.320;2023-04-24T10:48:25;11.17;;;5.87;;
20038;SDS011;21737;42.868;25.320;2023-04-24T10:54:51;7.93;;;5.57;;
20038;SDS011;21737;42.868;25.320;2023-04-24T10:58:02;7.40;;;5.30;;
20038;SDS011;21737;42.868;25.320;2023-04-24T11:01:05;8.87;;;5.60;;
20038;SDS011;21737;42.868;25.320;2023-04-24T11:04:06;8.13;;;5.13;;
20038;SDS011;21737;42.868;25.320;2023-04-24T11:07:08;5.73;;;4.80;;
20038;SDS011;21737;42.868;25.320;2023-04-24T11:10:16;5.80;;;4.50;;
20038;SDS011;21737;42.868;25.320;2023-04-24T11:13:27;9.03;;;4.83;;
20038;SDS011;21737;42.868;25.320;2023-04-24T11:19:31;6.17;;;4.63;;
20038;SDS011;21737;42.868;25.320;2023-04-24T11:22:35;6.67;;;4.50;;
20038;SDS011;21737;42.868;25.320;2023-04-24T11:25:37;6.60;;;5.00;;
20038;SDS011;21737;42.868;25.320;2023-04-24T11:28:48;7.53;;;4.80;;
20038;SDS011;21737;42.868;25.320;2023-04-24T11:31:50;7.37;;;4.63;;
20038;SDS011;21737;42.868;25.320;2023-04-24T11:34:54;8.13;;;5.07;;
20038;SDS011;21737;42.868;25.320;2023-04-24T11:37:56;8.43;;;5.23;;
20038;SDS011;21737;42.868;25.320;2023-04-24T11:41:01;8.80;;;5.20;;
20038;SDS011;21737;42.868;25.320;2023-04-24T11:44:06;6.80;;;5.00;;
20038;SDS011;21737;42.868;25.320;2023-04-24T11:47:08;8.23;;;5.23;;
20038;SDS011;21737;42.868;25.320;2023-04-24T11:50:13;8.33;;;6.27;;
20038;SDS011;21737;42.868;25.320;2023-04-24T11:53:18;6.33;;;5.40;;
20038;SDS011;21737;42.868;25.320;2023-04-24T11:56:25;7.37;;;5.17;;
20038;SDS011;21737;42.868;25.320;2023-04-24T11:59:27;10.77;;;6.60;;
20038;SDS011;21737;42.868;25.320;2023-04-24T12:02:29;9.60;;;6.30;;
20038;SDS011;21737;42.868;25.320;2023-04-24T12:05:31;10.50;;;5.90;;
20038;SDS011;21737;42.868;25.320;2023-04-24T12:08:33;7.93;;;5.63;;
20038;SDS011;21737;42.868;25.320;2023-04-24T12:11:38;7.37;;;5.00;;
20038;SDS011;21737;42.868;25.320;2023-04-24T12:14:54;11.93;;;6.43;;
20038;SDS011;21737;42.868;25.320;2023-04-24T12:17:56;8.43;;;5.60;;
20038;SDS011;21737;42.868;25.320;2023-04-24T12:21:14;10.70;;;6.20;;
20038;SDS011;21737;42.868;25.320;2023-04-24T12:24:16;9.87;;;6.57;;
20038;SDS011;21737;42.868;25.320;2023-04-24T12:27:19;8.10;;;5.80;;
20038;SDS011;21737;42.868;25.320;2023-04-24T12:30:25;7.63;;;5.20;;
20038;SDS011;21737;42.868;25.320;2023-04-24T12:33:27;5.70;;;5.10;;
20038;SDS011;21737;42.868;25.320;2023-04-24T12:36:29;9.00;;;5.93;;
20038;SDS011;21737;42.868;25.320;2023-04-24T12:39:31;14.57;;;8.77;;
20038;SDS011;21737;42.868;25.320;2023-04-24T12:42:33;27.30;;;13.47;;
20038;SDS011;21737;42.868;25.320;2023-04-24T12:45:35;17.23;;;12.73;;
20038;SDS011;21737;42.868;25.320;2023-04-24T12:48:36;9.63;;;6.07;;
20038;SDS011;21737;42.868;25.320;2023-04-24T12:51:38;8.70;;;6.63;;
20038;SDS011;21737;42.868;25.320;2023-04-24T12:54:40;7.77;;;5.97;;
20038;SDS011;21737;42.868;25.320;2023-04-24T12:57:42;10.50;;;5.73;;
20038;SDS011;21737;42.868;25.320;2023-04-24T13:00:44;14.77;;;6.50;;
20038;SDS011;21737;42.868;25.320;2023-04-24T13:03:47;7.43;;;6.20;;
20038;SDS011;21737;42.868;25.320;2023-04-24T13:06:49;9.77;;;5.73;;
20038;SDS011;21737;42.868;25.320;2023-04-24T13:09:51;8.27;;;6.47;;
20038;SDS011;21737;42.868;25.320;2023-04-24T13:12:53;10.83;;;6.27;;
20038;SDS011;21737;42.868;25.320;2023-04-24T13:15:54;7.30;;;5.97;;
20038;SDS011;21737;42.868;25.320;2023-04-24T13:18:56;8.27;;;6.03;;
20038;SDS011;21737;42.868;25.320;2023-04-24T13:21:58;7.50;;;6.10;;
20038;SDS011;21737;42.868;25.320;2023-04-24T13:25:00;11.13;;;6.13;;
20038;SDS011;21737;42.868;25.320;2023-04-24T13:28:02;6.37;;;5.70;;
20038;SDS011;21737;42.868;25.320;2023-04-24T13:31:04;6.63;;;5.73;;
20038;SDS011;21737;42.868;25.320;2023-04-24T13:34:06;11.43;;;5.83;;
20038;SDS011;21737;42.868;25.320;2023-04-24T13:37:08;8.80;;;6.13;;
20038;SDS011;21737;42.868;25.320;2023-04-24T13:40:10;8.63;;;5.80;;
20038;SDS011;21737;42.868;25.320;2023-04-24T13:43:12;7.37;;;5.67;;
20038;SDS011;21737;42.868;25.320;2023-04-24T13:46:14;16.17;;;6.30;;
20038;SDS011;21737;42.868;25.320;2023-04-24T13:49:16;10.70;;;6.10;;
20038;SDS011;21737;42.868;25.320;2023-04-24T13:52:17;7.93;;;6.20;;
20038;SDS011;21737;42.868;25.320;2023-04-24T13:55:19;10.03;;;6.07;;
20038;SDS011;21737;42.868;25.320;2023-04-24T13:58:21;7.13;;;5.93;;
20038;SDS011;21737;42.868;25.320;2023-04-24T14:01:23;13.50;;;6.53;;
20038;SDS011;21737;42.868;25.320;2023-04-24T14:04:26;7.00;;;5.90;;
20038;SDS011;21737;42.868;25.320;2023-04-24T14:07:28;7.70;;;6.83;;
20038;SDS011;21737;42.868;25.320;2023-04-24T14:10:30;9.67;;;6.70;;
20038;SDS011;21737;42.868;25.320;2023-04-24T14:13:31;12.63;;;6.53;;
20038;SDS011;21737;42.868;25.320;2023-04-24T14:16:33;9.70;;;6.70;;
20038;SDS011;21737;42.868;25.320;2023-04-24T14:19:36;7.93;;;6.83;;
20038;SDS011;21737;42.868;25.320;2023-04-24T14:22:38;9.53;;;6.40;;
20038;SDS011;21737;42.868;25.320;2023-04-24T14:25:39;8.93;;;6.40;;
20038;SDS011;21737;42.868;25.320;2023-04-24T14:28:41;11.20;;;6.23;;
20038;SDS011;21737;42.868;25.320;2023-04-24T14:31:43;10.80;;;6.33;;
20038;SDS011;21737;42.868;25.320;2023-04-24T14:34:45;8.27;;;6.80;;
20038;SDS011;21737;42.868;25.320;2023-04-24T14:37:46;12.47;;;7.43;;
20038;SDS011;21737;42.868;25.320;2023-04-24T14:40:49;8.70;;;6.50;;
20038;SDS011;21737;42.868;25.320;2023-04-24T14:43:54;7.30;;;6.47;;
20038;SDS011;21737;42.868;25.320;2023-04-24T14:46:56;11.93;;;7.10;;
20038;SDS011;21737;42.868;25.320;2023-04-24T14:49:58;9.63;;;7.07;;
20038;SDS011;21737;42.868;25.320;2023-04-24T14:53:00;7.43;;;6.13;;
20038;SDS011;21737;42.868;25.320;2023-04-24T14:56:03;7.93;;;6.87;;
20038;SDS011;21737;42.868;25.320;2023-04-24T14:59:05;12.33;;;7.40;;
20038;SDS011;21737;42.868;25.320;2023-04-24T15:02:06;15.30;;;10.93;;
20038;SDS011;21737;42.868;25.320;2023-04-24T15:05:17;8.80;;;7.10;;
20038;SDS011;21737;42.868;25.320;2023-04-24T15:08:19;10.53;;;7.53;;
20038;SDS011;21737;42.868;25.320;2023-04-24T15:11:21;8.27;;;7.33;;
20038;SDS011;21737;42.868;25.320;2023-04-24T15:14:23;12.60;;;6.67;;
20038;SDS011;21737;42.868;25.320;2023-04-24T15:17:25;9.90;;;7.67;;
20038;SDS011;21737;42.868;25.320;2023-04-24T15:20:27;9.03;;;6.30;;
20038;SDS011;21737;42.868;25.320;2023-04-24T15:23:29;7.70;;;6.80;;
20038;SDS011;21737;42.868;25.320;2023-04-24T15:26:31;11.23;;;6.97;;
20038;SDS011;21737;42.868;25.320;2023-04-24T15:29:33;10.93;;;7.00;;
20038;SDS011;21737;42.868;25.320;2023-04-24T15:32:34;8.33;;;7.20;;
20038;SDS011;21737;42.868;25.320;2023-04-24T15:35:36;10.97;;;7.30;;
20038;SDS011;21737;42.868;25.320;2023-04-24T15:38:39;10.00;;;7.20;;
20038;SDS011;21737;42.868;25.320;2023-04-24T15:41:41;9.23;;;6.77;;
20038;SDS011;21737;42.868;25.320;2023-04-24T15:44:43;10.57;;;7.87;;
20038;SDS011;21737;42.868;25.320;2023-04-24T15:47:46;13.60;;;8.20;;
20038;SDS011;21737;42.868;25.320;2023-04-24T15:50:48;12.80;;;7.67;;
20038;SDS011;21737;42.868;25.320;2023-04-24T15:53:49;9.63;;;7.87;;
20038;SDS011;21737;42.868;25.320;2023-04-24T15:56:51;12.47;;;7.83;;
20038;SDS011;21737;42.868;25.320;2023-04-24T15:59:53;12.90;;;8.13;;
20038;SDS011;21737;42.868;25.320;2023-04-24T16:02:55;9.17;;;7.40;;
20038;SDS011;21737;42.868;25.320;2023-04-24T16:05:57;8.17;;;7.30;;
20038;SDS011;21737;42.868;25.320;2023-04-24T16:08:58;8.87;;;7.00;;
20038;SDS011;21737;42.868;25.320;2023-04-24T16:12:03;7.90;;;6.73;;
20038;SDS011;21737;42.868;25.320;2023-04-24T16:15:05;9.77;;;6.23;;
20038;SDS011;21737;42.868;25.320;2023-04-24T16:18:07;7.87;;;6.17;;
20038;SDS011;21737;42.868;25.320;2023-04-24T16:21:10;8.07;;;6.80;;
20038;SDS011;21737;42.868;25.320;2023-04-24T16:24:12;9.23;;;6.97;;
20038;SDS011;21737;42.868;25.320;2023-04-24T16:27:14;9.47;;;8.10;;
20038;SDS011;21737;42.868;25.320;2023-04-24T16:30:16;13.00;;;10.17;;
20038;SDS011;21737;42.868;25.320;2023-04-24T16:33:18;11.10;;;8.27;;
20038;SDS011;21737;42.868;25.320;2023-04-24T16:36:20;13.93;;;8.70;;
20038;SDS011;21737;42.868;25.320;2023-04-24T16:39:22;10.57;;;8.33;;
20038;SDS011;21737;42.868;25.320;2023-04-24T16:42:25;10.13;;;9.10;;
20038;SDS011;21737;42.868;25.320;2023-04-24T16:45:27;10.10;;;7.77;;
20038;SDS011;21737;42.868;25.320;2023-04-24T16:48:31;9.90;;;8.23;;
20038;SDS011;21737;42.868;25.320;2023-04-24T16:51:33;9.93;;;8.93;;
20038;SDS011;21737;42.868;25.320;2023-04-24T16:54:35;11.80;;;7.50;;
20038;SDS011;21737;42.868;25.320;2023-04-24T16:57:40;10.03;;;8.50;;
20038;SDS011;21737;42.868;25.320;2023-04-24T17:00:43;13.20;;;8.33;;
20038;SDS011;21737;42.868;25.320;2023-04-24T17:03:53;10.30;;;8.07;;
20038;SDS011;21737;42.868;25.320;2023-04-24T17:07:00;10.77;;;8.73;;
20038;SDS011;21737;42.868;25.320;2023-04-24T17:10:02;8.80;;;7.30;;
20038;SDS011;21737;42.868;25.320;2023-04-24T17:13:05;10.60;;;8.37;;
20038;SDS011;21737;42.868;25.320;2023-04-24T17:16:08;13.97;;;10.40;;
20038;SDS011;21737;42.868;25.320;2023-04-24T17:19:12;17.23;;;11.20;;
20038;SDS011;21737;42.868;25.320;2023-04-24T17:22:19;19.33;;;15.17;;
20038;SDS011;21737;42.868;25.320;2023-04-24T17:25:24;46.37;;;26.50;;
20038;SDS011;21737;42.868;25.320;2023-04-24T17:28:27;24.43;;;17.50;;
20038;SDS011;21737;42.868;25.320;2023-04-24T17:31:30;21.23;;;13.87;;
20038;SDS011;21737;42.868;25.320;2023-04-24T17:34:32;20.87;;;15.50;;
20038;SDS011;21737;42.868;25.320;2023-04-24T17:37:34;18.87;;;14.87;;
20038;SDS011;21737;42.868;25.320;2023-04-24T17:40:37;21.60;;;16.90;;
20038;SDS011;21737;42.868;25.320;2023-04-24T17:43:40;17.40;;;13.10;;
20038;SDS011;21737;42.868;25.320;2023-04-24T17:46:42;18.40;;;13.23;;
20038;SDS011;21737;42.868;25.320;2023-04-24T17:49:44;15.13;;;9.73;;
20038;SDS011;21737;42.868;25.320;2023-04-24T17:52:45;10.37;;;8.80;;
20038;SDS011;21737;42.868;25.320;2023-04-24T17:55:47;9.27;;;7.70;;
20038;SDS011;21737;42.868;25.320;2023-04-24T17:58:50;9.93;;;7.90;;
20038;SDS011;21737;42.868;25.320;2023-04-24T18:01:52;8.97;;;6.93;;
20038;SDS011;21737;42.868;25.320;2023-04-24T18:04:53;7.77;;;5.80;;